Kaprifol — 5BXX2 — position and weather

sailwx.info

Track history (hours):
 
Tides and Currents Weather Stations Pressure Air Temp Water Temp Dewpoint Dewpoint Depression Visibility Wind Speed Wind Dir Waves Ship Positions

Kaprifol

Last reported at 2017-Jun-25 00:00 UTC. Time now 2017-Jun-25 00:22 UTC.
Position N 63°43' E 009°31'.

Length 90 m; draft 5.5 m.

Type: Tanker. MMSI: 210445000.

Date/timePositionNaut miles runAvg speedWind from/ knotsBaromVisibWave heightAir tempDewpointWater temp
2017-Jun-25 00:00N 63°43' E 009°31'510.0
2017-Jun-24 23:30N 63°48' E 009°34'510.2
2017-Jun-24 23:00N 63°52' E 009°41'510.1
2017-Jun-24 22:30N 63°54' E 009°51'1 2.1
2017-Jun-24 22:00N 63°53' E 009°52'0 0.0
2017-Jun-24 21:30N 63°53' E 009°52'0 0.0
2017-Jun-24 21:00N 63°53' E 009°52'0 0.0
2017-Jun-24 20:30N 63°53' E 009°52'0 0.0
2017-Jun-24 20:00N 63°53' E 009°52'0 0.0
2017-Jun-24 19:30N 63°53' E 009°52'0 0.0
2017-Jun-24 19:00N 63°53' E 009°52'0 0.0
2017-Jun-24 18:30N 63°53' E 009°52'0 0.0
2017-Jun-24 18:00N 63°53' E 009°52'0 0.0
2017-Jun-24 17:30N 63°53' E 009°52'0 0.0
2017-Jun-24 17:00N 63°53' E 009°52'0 0.0
2017-Jun-24 16:30N 63°53' E 009°52'0 0.0
2017-Jun-24 16:00N 63°53' E 009°52'0 0.0
2017-Jun-24 15:30N 63°53' E 009°52'0 0.0
2017-Jun-24 15:00N 63°53' E 009°52'0 0.1
2017-Jun-24 14:00N 63°53' E 009°52'3 5.7
2017-Jun-24 13:30N 63°53' E 009°46'510.2
2017-Jun-24 13:00N 63°50' E 009°37'510.7
2017-Jun-24 12:30N 63°45' E 009°32'611.5
2017-Jun-24 12:01N 63°39' E 009°29'510.3
2017-Jun-24 11:30N 63°34' E 009°24'611.3
2017-Jun-24 11:00N 63°32' E 009°13'612.0
2017-Jun-24 10:30N 63°29' E 009°01'611.4
2017-Jun-24 10:00N 63°27' E 008°49'611.4
2017-Jun-24 09:29N 63°25' E 008°37'611.6
2017-Jun-24 09:00N 63°22' E 008°25'612.0
2017-Jun-24 08:30N 63°18' E 008°15'612.3
2017-Jun-24 08:00N 63°15' E 008°04'611.4
2017-Jun-24 07:30N 63°13' E 007°52'5 9.8
2017-Jun-24 07:01N 63°14' E 007°41'4 7.6
2017-Jun-24 06:31N 63°15' E 007°33'5 9.5
2017-Jun-24 06:00N 63°14' E 007°23'5 9.8
2017-Jun-24 05:30N 63°14' E 007°12'510.0
2017-Jun-24 05:00N 63°13' E 007°01'5 9.9
2017-Jun-24 04:30N 63°13' E 006°50'5 9.8
2017-Jun-24 04:00N 63°12' E 006°39'  
2017-Jun-20 04:39N 57°36' W 001°42'111.1
2017-Jun-20 04:31N 57°34' W 001°42'510.2
2017-Jun-20 04:00N 57°30' W 001°46'1 1.1
2017-Jun-20 03:28N 57°30' W 001°47'0 0.0
2017-Jun-20 02:58N 57°30' W 001°47'0 0.0
2017-Jun-20 02:28N 57°30' W 001°47'0 0.0
2017-Jun-20 01:58N 57°30' W 001°47'0 0.0
2017-Jun-20 01:28N 57°30' W 001°47'0 0.0
2017-Jun-20 00:58N 57°30' W 001°47'0 0.0
2017-Jun-20 00:28N 57°30' W 001°47'0 0.0
2017-Jun-19 23:58N 57°30' W 001°47'0 0.0
2017-Jun-19 23:28N 57°30' W 001°47'0 0.0
2017-Jun-19 22:58N 57°30' W 001°47'0 0.0
2017-Jun-19 22:28N 57°30' W 001°47'0 0.0
2017-Jun-19 21:58N 57°30' W 001°47'0 0.0
2017-Jun-19 21:28N 57°30' W 001°47'0 0.0
2017-Jun-19 20:58N 57°30' W 001°47'0 0.0
2017-Jun-19 20:28N 57°30' W 001°47'0 0.0
2017-Jun-19 19:58N 57°30' W 001°47'0 0.0
2017-Jun-19 19:28N 57°30' W 001°47'0 0.0
2017-Jun-19 18:58N 57°30' W 001°47'0 0.0
2017-Jun-19 18:28N 57°30' W 001°47'0 0.0
2017-Jun-19 17:58N 57°30' W 001°47'0 0.0
2017-Jun-19 17:28N 57°30' W 001°47'0 0.0
2017-Jun-19 16:58N 57°30' W 001°47'0 0.0
2017-Jun-19 16:28N 57°30' W 001°47'0 0.0
2017-Jun-19 15:58N 57°30' W 001°47'0 0.0
2017-Jun-19 15:25N 57°30' W 001°47'0 0.0
2017-Jun-19 14:58N 57°30' W 001°47'0 0.0
2017-Jun-19 13:13N 57°30' W 001°47'0 0.0
2017-Jun-19 12:49N 57°30' W 001°47'316 9.2
2017-Jun-18 02:29N 57°37' E 008°02'510.0
2017-Jun-18 02:00N 57°38' E 008°11'510.2
2017-Jun-18 01:30N 57°39' E 008°21'510.1
2017-Jun-18 01:00N 57°39' E 008°30'510.1
2017-Jun-18 00:29N 57°40' E 008°40'510.3
2017-Jun-17 23:59N 57°40' E 008°49'38 9.4
2017-Jun-17 19:55N 57°46' E 010°00'5 9.4
2017-Jun-17 19:26N 57°46' E 010°09'5 9.3
2017-Jun-17 18:57N 57°47' E 010°17'4 9.2
2017-Jun-17 18:30N 57°47' E 010°25'5 9.3
2017-Jun-17 18:00N 57°48' E 010°34'4 9.1
2017-Jun-17 17:30N 57°48' E 010°42'5 9.2
2017-Jun-17 16:59N 57°47' E 010°51'4 9.3
2017-Jun-17 16:30N 57°45' E 010°58'5 9.7
2017-Jun-17 16:00N 57°43' E 011°06'510.5
2017-Jun-17 15:30N 57°41' E 011°15'510.9
2017-Jun-17 15:00N 57°38' E 011°24'510.6
2017-Jun-17 14:29N 57°36' E 011°33'5 4.7
2017-Jun-17 13:29N 57°35' E 011°42'0 0.0
2017-Jun-17 12:59N 57°35' E 011°42'0 0.0
2017-Jun-17 12:28N 57°35' E 011°42'0 0.1
2017-Jun-17 12:00N 57°35' E 011°42'4 7.5
2017-Jun-17 11:30N 57°32' E 011°39'510.5
2017-Jun-17 11:00N 57°27' E 011°40'510.5
2017-Jun-17 10:29N 57°22' E 011°44'510.3
2017-Jun-17 09:58N 57°17' E 011°49'4 9.5
2017-Jun-17 09:30N 57°13' E 011°53'6 9.7
2017-Jun-17 08:53N 57°08' E 011°57'810.5
2017-Jun-17 08:06N 57°00' E 012°03'410.6
2017-Jun-17 07:44N 56°57' E 012°06'210.6
2017-Jun-17 07:30N 56°54' E 012°08'2510.6
2017-Jun-17 05:11N 56°31' E 012°20'13 9.9
2017-Jun-17 03:52N 56°18' E 012°24'4 9.7
2017-Jun-17 03:30N 56°15' E 012°27'5 9.3
2017-Jun-17 03:00N 56°10' E 012°30'4 9.0
2017-Jun-17 02:30N 56°07' E 012°34'4 8.3
2017-Jun-17 02:00N 56°04' E 012°39'4 7.9
2017-Jun-17 01:30N 55°60' E 012°42'1 1.7
2017-Jun-17 01:00N 56°01' E 012°43'0 0.0
2017-Jun-17 00:28N 56°01' E 012°43'0 0.0
2017-Jun-16 23:58N 56°01' E 012°43'0 0.0
2017-Jun-16 23:28N 56°01' E 012°43'0 0.0
2017-Jun-16 22:58N 56°01' E 012°43'0 0.0
2017-Jun-16 22:28N 56°01' E 012°43'0 0.0
2017-Jun-16 21:58N 56°01' E 012°43'0 0.0
2017-Jun-16 21:28N 56°01' E 012°43'0 0.0
2017-Jun-16 20:58N 56°01' E 012°43'0 0.0
2017-Jun-16 20:28N 56°01' E 012°43'0 0.0
2017-Jun-16 19:58N 56°01' E 012°43'0 0.0
2017-Jun-16 19:28N 56°01' E 012°43'0 0.0
2017-Jun-16 18:58N 56°01' E 012°43'0 0.0
2017-Jun-16 18:28N 56°01' E 012°43'0 0.0
2017-Jun-16 17:58N 56°01' E 012°43'0 0.0
2017-Jun-16 17:28N 56°01' E 012°43'0 0.0
2017-Jun-16 16:58N 56°01' E 012°43'0 0.0
2017-Jun-16 16:28N 56°01' E 012°43'0 0.0
2017-Jun-16 15:58N 56°01' E 012°43'0 0.0
2017-Jun-16 15:28N 56°01' E 012°43'0 0.0
2017-Jun-16 14:58N 56°01' E 012°43'0 0.0
2017-Jun-16 13:58N 56°01' E 012°43'0 0.0
2017-Jun-16 13:28N 56°01' E 012°43'0 0.1
2017-Jun-16 13:01N 56°01' E 012°43'2 3.0
2017-Jun-16 12:30N 55°59' E 012°41'510.7
2017-Jun-16 12:01N 56°04' E 012°37'611.2
2017-Jun-16 11:31N 56°08' E 012°29'510.3
2017-Jun-16 11:00N 56°12' E 012°24'810.5
2017-Jun-16 10:16N 56°20' E 012°23'410.6
2017-Jun-16 09:53N 56°24' E 012°23'  
Track history (hours):
 
Tides and Currents Weather Stations Pressure Air Temp Water Temp Dewpoint Dewpoint Depression Visibility Wind Speed Wind Dir Waves Ship Positions

Kaprifol

Last reported at 2017-Jun-25 00:00 UTC. Time now 2017-Jun-25 00:22 UTC.
Position N 63°43' E 009°31'.

Length 90 m; draft 5.5 m.

Type: Tanker. MMSI: 210445000.

Date/timePositionNaut miles runAvg speedWind from/ knotsBaromVisibWave heightAir tempDewpointWater temp
2017-Jun-25 00:00N 63°43' E 009°31'510.0
2017-Jun-24 23:30N 63°48' E 009°34'510.2
2017-Jun-24 23:00N 63°52' E 009°41'510.1
2017-Jun-24 22:30N 63°54' E 009°51'1 2.1
2017-Jun-24 22:00N 63°53' E 009°52'0 0.0
2017-Jun-24 21:30N 63°53' E 009°52'0 0.0
2017-Jun-24 21:00N 63°53' E 009°52'0 0.0
2017-Jun-24 20:30N 63°53' E 009°52'0 0.0
2017-Jun-24 20:00N 63°53' E 009°52'0 0.0
2017-Jun-24 19:30N 63°53' E 009°52'0 0.0
2017-Jun-24 19:00N 63°53' E 009°52'0 0.0
2017-Jun-24 18:30N 63°53' E 009°52'0 0.0
2017-Jun-24 18:00N 63°53' E 009°52'0 0.0
2017-Jun-24 17:30N 63°53' E 009°52'0 0.0
2017-Jun-24 17:00N 63°53' E 009°52'0 0.0
2017-Jun-24 16:30N 63°53' E 009°52'0 0.0
2017-Jun-24 16:00N 63°53' E 009°52'0 0.0
2017-Jun-24 15:30N 63°53' E 009°52'0 0.0
2017-Jun-24 15:00N 63°53' E 009°52'0 0.1
2017-Jun-24 14:00N 63°53' E 009°52'3 5.7
2017-Jun-24 13:30N 63°53' E 009°46'510.2
2017-Jun-24 13:00N 63°50' E 009°37'510.7
2017-Jun-24 12:30N 63°45' E 009°32'611.5
2017-Jun-24 12:01N 63°39' E 009°29'510.3
2017-Jun-24 11:30N 63°34' E 009°24'611.3
2017-Jun-24 11:00N 63°32' E 009°13'612.0
2017-Jun-24 10:30N 63°29' E 009°01'611.4
2017-Jun-24 10:00N 63°27' E 008°49'611.4
2017-Jun-24 09:29N 63°25' E 008°37'611.6
2017-Jun-24 09:00N 63°22' E 008°25'612.0
2017-Jun-24 08:30N 63°18' E 008°15'612.3
2017-Jun-24 08:00N 63°15' E 008°04'611.4
2017-Jun-24 07:30N 63°13' E 007°52'5 9.8
2017-Jun-24 07:01N 63°14' E 007°41'4 7.6
2017-Jun-24 06:31N 63°15' E 007°33'5 9.5
2017-Jun-24 06:00N 63°14' E 007°23'5 9.8
2017-Jun-24 05:30N 63°14' E 007°12'510.0
2017-Jun-24 05:00N 63°13' E 007°01'5 9.9
2017-Jun-24 04:30N 63°13' E 006°50'5 9.8
2017-Jun-24 04:00N 63°12' E 006°39'  
2017-Jun-20 04:39N 57°36' W 001°42'111.1
2017-Jun-20 04:31N 57°34' W 001°42'510.2
2017-Jun-20 04:00N 57°30' W 001°46'1 1.1
2017-Jun-20 03:28N 57°30' W 001°47'0 0.0
2017-Jun-20 02:58N 57°30' W 001°47'0 0.0
2017-Jun-20 02:28N 57°30' W 001°47'0 0.0
2017-Jun-20 01:58N 57°30' W 001°47'0 0.0
2017-Jun-20 01:28N 57°30' W 001°47'0 0.0
2017-Jun-20 00:58N 57°30' W 001°47'0 0.0
2017-Jun-20 00:28N 57°30' W 001°47'0 0.0
2017-Jun-19 23:58N 57°30' W 001°47'0 0.0
2017-Jun-19 23:28N 57°30' W 001°47'0 0.0
2017-Jun-19 22:58N 57°30' W 001°47'0 0.0
2017-Jun-19 22:28N 57°30' W 001°47'0 0.0
2017-Jun-19 21:58N 57°30' W 001°47'0 0.0
2017-Jun-19 21:28N 57°30' W 001°47'0 0.0
2017-Jun-19 20:58N 57°30' W 001°47'0 0.0
2017-Jun-19 20:28N 57°30' W 001°47'0 0.0
2017-Jun-19 19:58N 57°30' W 001°47'0 0.0
2017-Jun-19 19:28N 57°30' W 001°47'0 0.0
2017-Jun-19 18:58N 57°30' W 001°47'0 0.0
2017-Jun-19 18:28N 57°30' W 001°47'0 0.0
2017-Jun-19 17:58N 57°30' W 001°47'0 0.0
2017-Jun-19 17:28N 57°30' W 001°47'0 0.0
2017-Jun-19 16:58N 57°30' W 001°47'0 0.0
2017-Jun-19 16:28N 57°30' W 001°47'0 0.0
2017-Jun-19 15:58N 57°30' W 001°47'0 0.0
2017-Jun-19 15:25N 57°30' W 001°47'0 0.0
2017-Jun-19 14:58N 57°30' W 001°47'0 0.0
2017-Jun-19 13:13N 57°30' W 001°47'0 0.0
2017-Jun-19 12:49N 57°30' W 001°47'316 9.2
2017-Jun-18 02:29N 57°37' E 008°02'510.0
2017-Jun-18 02:00N 57°38' E 008°11'510.2
2017-Jun-18 01:30N 57°39' E 008°21'510.1
2017-Jun-18 01:00N 57°39' E 008°30'510.1
2017-Jun-18 00:29N 57°40' E 008°40'510.3
2017-Jun-17 23:59N 57°40' E 008°49'38 9.4
2017-Jun-17 19:55N 57°46' E 010°00'5 9.4
2017-Jun-17 19:26N 57°46' E 010°09'5 9.3
2017-Jun-17 18:57N 57°47' E 010°17'4 9.2
2017-Jun-17 18:30N 57°47' E 010°25'5 9.3
2017-Jun-17 18:00N 57°48' E 010°34'4 9.1
2017-Jun-17 17:30N 57°48' E 010°42'5 9.2
2017-Jun-17 16:59N 57°47' E 010°51'4 9.3
2017-Jun-17 16:30N 57°45' E 010°58'5 9.7
2017-Jun-17 16:00N 57°43' E 011°06'510.5
2017-Jun-17 15:30N 57°41' E 011°15'510.9
2017-Jun-17 15:00N 57°38' E 011°24'510.6
2017-Jun-17 14:29N 57°36' E 011°33'5 4.7
2017-Jun-17 13:29N 57°35' E 011°42'0 0.0
2017-Jun-17 12:59N 57°35' E 011°42'0 0.0
2017-Jun-17 12:28N 57°35' E 011°42'0 0.1
2017-Jun-17 12:00N 57°35' E 011°42'4 7.5
2017-Jun-17 11:30N 57°32' E 011°39'510.5
2017-Jun-17 11:00N 57°27' E 011°40'510.5
2017-Jun-17 10:29N 57°22' E 011°44'510.3
2017-Jun-17 09:58N 57°17' E 011°49'4 9.5
2017-Jun-17 09:30N 57°13' E 011°53'6 9.7
2017-Jun-17 08:53N 57°08' E 011°57'810.5
2017-Jun-17 08:06N 57°00' E 012°03'410.6
2017-Jun-17 07:44N 56°57' E 012°06'210.6
2017-Jun-17 07:30N 56°54' E 012°08'2510.6
2017-Jun-17 05:11N 56°31' E 012°20'13 9.9
2017-Jun-17 03:52N 56°18' E 012°24'4 9.7
2017-Jun-17 03:30N 56°15' E 012°27'5 9.3
2017-Jun-17 03:00N 56°10' E 012°30'4 9.0
2017-Jun-17 02:30N 56°07' E 012°34'4 8.3
2017-Jun-17 02:00N 56°04' E 012°39'4 7.9
2017-Jun-17 01:30N 55°60' E 012°42'1 1.7
2017-Jun-17 01:00N 56°01' E 012°43'0 0.0
2017-Jun-17 00:28N 56°01' E 012°43'0 0.0
2017-Jun-16 23:58N 56°01' E 012°43'0 0.0
2017-Jun-16 23:28N 56°01' E 012°43'0 0.0
2017-Jun-16 22:58N 56°01' E 012°43'0 0.0
2017-Jun-16 22:28N 56°01' E 012°43'0 0.0
2017-Jun-16 21:58N 56°01' E 012°43'0 0.0
2017-Jun-16 21:28N 56°01' E 012°43'0 0.0
2017-Jun-16 20:58N 56°01' E 012°43'0 0.0
2017-Jun-16 20:28N 56°01' E 012°43'0 0.0
2017-Jun-16 19:58N 56°01' E 012°43'0 0.0
2017-Jun-16 19:28N 56°01' E 012°43'0 0.0
2017-Jun-16 18:58N 56°01' E 012°43'0 0.0
2017-Jun-16 18:28N 56°01' E 012°43'0 0.0
2017-Jun-16 17:58N 56°01' E 012°43'0 0.0
2017-Jun-16 17:28N 56°01' E 012°43'0 0.0
2017-Jun-16 16:58N 56°01' E 012°43'0 0.0
2017-Jun-16 16:28N 56°01' E 012°43'0 0.0
2017-Jun-16 15:58N 56°01' E 012°43'0 0.0
2017-Jun-16 15:28N 56°01' E 012°43'0 0.0
2017-Jun-16 14:58N 56°01' E 012°43'0 0.0
2017-Jun-16 13:58N 56°01' E 012°43'0 0.0
2017-Jun-16 13:28N 56°01' E 012°43'0 0.1
2017-Jun-16 13:01N 56°01' E 012°43'2 3.0
2017-Jun-16 12:30N 55°59' E 012°41'510.7
2017-Jun-16 12:01N 56°04' E 012°37'611.2
2017-Jun-16 11:31N 56°08' E 012°29'510.3
2017-Jun-16 11:00N 56°12' E 012°24'810.5
2017-Jun-16 10:16N 56°20' E 012°23'410.6
2017-Jun-16 09:53N 56°24' E 012°23'  

Dump ship's entire track history